Time;durP1;ratioP1;P1;durP2;ratioP2;P2;SDS_P1;SDS_P2;PMS_P1;PMS_P2;Temp;Humidity;BMP_temperature;BMP_pressure;BME280_temperature;BME280_humidity;BME280_pressure;Samples;Min_cycle;Max_cycle;Signal;HPM_P1;HPM_P2
2021/05/18 00:01:06;;;;;;;24.77;12.70;;;;;;;;;;4992143;28;20486;-70
2021/05/18 00:03:33;;;;;;;27.35;12.55;;;;;;;;;;4992478;28;20023;-71
2021/05/18 00:05:59;;;;;;;34.58;13.95;;;;;;;;;;4995618;28;20030;-71
2021/05/18 00:08:27;;;;;;;34.88;15.77;;;;;;;;;;4993800;28;20205;-70
2021/05/18 00:13:40;;;;;;;31.73;13.05;;;;;;;;;;4992583;28;20037;-70
2021/05/18 00:16:06;;;;;;;33.83;15.25;;;;;;;;;;4992832;28;20010;-70
2021/05/18 00:18:34;;;;;;;27.80;14.25;;;;;;;;;;4992251;28;20042;-70
2021/05/18 00:21:00;;;;;;;30.65;14.48;;;;;;;;;;5000626;28;20026;-69
2021/05/18 00:23:27;;;;;;;32.35;14.38;;;;;;;;;;4992269;28;20022;-70
2021/05/18 00:25:53;;;;;;;24.08;14.10;;;;;;;;;;4987771;28;20022;-70
2021/05/18 00:28:19;;;;;;;30.35;15.43;;;;;;;;;;4976286;28;20452;-70
2021/05/18 00:30:45;;;;;;;43.13;14.13;;;;;;;;;;4990411;28;20121;-70
2021/05/18 00:33:16;;;;;;;30.02;14.07;;;;;;;;;;4983944;28;20472;-69
2021/05/18 00:35:43;;;;;;;22.95;14.23;;;;;;;;;;4986623;28;20539;-70
2021/05/18 00:38:09;;;;;;;24.77;13.13;;;;;;;;;;4982037;28;20026;-70
2021/05/18 00:40:35;;;;;;;24.85;13.30;;;;;;;;;;4994725;28;20023;-70
2021/05/18 00:43:01;;;;;;;38.03;15.02;;;;;;;;;;4995716;28;20045;-70
2021/05/18 00:45:30;;;;;;;24.48;13.80;;;;;;;;;;4991731;28;20404;-70
2021/05/18 00:47:56;;;;;;;26.70;14.45;;;;;;;;;;4978895;28;20021;-70
2021/05/18 00:50:22;;;;;;;38.88;13.73;;;;;;;;;;4991785;28;20113;-70
2021/05/18 00:52:48;;;;;;;28.98;13.20;;;;;;;;;;4983389;28;20030;-70
2021/05/18 00:55:30;;;;;;;32.63;12.95;;;;;;;;;;4991648;28;20108;-70
2021/05/18 01:00:43;;;;;;;24.02;13.38;;;;;;;;;;4991053;28;20033;-69
2021/05/18 01:03:09;;;;;;;26.90;14.13;;;;;;;;;;4991526;28;20109;-70
2021/05/18 01:08:19;;;;;;;25.65;15.13;;;;;;;;;;4990790;28;20104;-70
2021/05/18 01:10:45;;;;;;;26.08;14.40;;;;;;;;;;4991429;28;20030;-70
2021/05/18 01:13:11;;;;;;;29.25;15.88;;;;;;;;;;4983281;28;20028;-70
2021/05/18 01:15:38;;;;;;;33.65;14.63;;;;;;;;;;4986297;28;20018;-70
2021/05/18 01:18:05;;;;;;;31.83;15.30;;;;;;;;;;4987385;28;20402;-70
2021/05/18 01:20:31;;;;;;;30.00;13.90;;;;;;;;;;4991357;28;20018;-71
2021/05/18 01:22:57;;;;;;;27.80;14.38;;;;;;;;;;4990655;28;20018;-71
2021/05/18 01:25:23;;;;;;;26.23;15.25;;;;;;;;;;4991674;28;20459;-70
2021/05/18 01:27:49;;;;;;;31.27;16.42;;;;;;;;;;4990894;28;20065;-71
2021/05/18 01:30:16;;;;;;;36.10;16.50;;;;;;;;;;4989916;28;20018;-70
2021/05/18 01:32:42;;;;;;;33.15;14.93;;;;;;;;;;4991133;28;20026;-70
2021/05/18 01:35:10;;;;;;;29.10;15.02;;;;;;;;;;4990417;28;20029;-70
2021/05/18 01:37:36;;;;;;;27.42;14.13;;;;;;;;;;4991052;28;20037;-70
2021/05/18 01:42:46;;;;;;;34.08;15.25;;;;;;;;;;4997061;28;20026;-70
2021/05/18 01:45:14;;;;;;;33.45;15.93;;;;;;;;;;4993206;28;20368;-70
2021/05/18 01:47:41;;;;;;;29.23;15.45;;;;;;;;;;4995733;28;20027;-70
2021/05/18 01:50:08;;;;;;;29.27;15.60;;;;;;;;;;4989355;28;20022;-70
2021/05/18 01:52:34;;;;;;;27.85;15.85;;;;;;;;;;4991846;28;20027;-70
2021/05/18 01:55:00;;;;;;;33.50;15.52;;;;;;;;;;4977190;28;20038;-70
2021/05/18 01:57:27;;;;;;;33.88;15.82;;;;;;;;;;4990559;28;20104;-69
2021/05/18 01:59:53;;;;;;;44.20;17.45;;;;;;;;;;4994865;28;20030;-70
2021/05/18 02:02:19;;;;;;;38.58;17.00;;;;;;;;;;4980435;28;20121;-70
2021/05/18 02:04:47;;;;;;;32.15;17.05;;;;;;;;;;4991946;28;20023;-70
2021/05/18 02:07:17;;;;;;;34.50;17.10;;;;;;;;;;4984873;28;20029;-70
2021/05/18 02:09:44;;;;;;;37.30;17.50;;;;;;;;;;4982291;28;21239;-70
2021/05/18 02:12:10;;;;;;;45.55;19.45;;;;;;;;;;4989369;28;20050;-70
2021/05/18 02:14:37;;;;;;;35.20;16.85;;;;;;;;;;4973387;28;20451;-70
2021/05/18 02:17:13;;;;;;;39.25;19.45;;;;;;;;;;4990601;28;20018;-71
2021/05/18 02:25:10;;;;;;;33.60;17.00;;;;;;;;;;4990826;28;20145;-69
2021/05/18 02:27:36;;;;;;;39.22;19.33;;;;;;;;;;4993375;28;20026;-70
2021/05/18 02:30:03;;;;;;;43.63;18.63;;;;;;;;;;4986133;28;20030;-70
2021/05/18 02:32:30;;;;;;;38.38;18.80;;;;;;;;;;4993727;28;20385;-70
2021/05/18 02:34:56;;;;;;;37.75;20.42;;;;;;;;;;4976329;28;20046;-69
2021/05/18 02:37:22;;;;;;;40.60;20.65;;;;;;;;;;4993160;28;20026;-70
2021/05/18 02:39:48;;;;;;;37.42;19.95;;;;;;;;;;4989244;28;20034;-71
2021/05/18 02:42:14;;;;;;;49.70;21.20;;;;;;;;;;4993142;28;20404;-70
2021/05/18 02:49:54;;;;;;;38.50;19.85;;;;;;;;;;4992615;28;20041;-71
2021/05/18 02:52:20;;;;;;;39.95;22.73;;;;;;;;;;4989184;28;20492;-71
2021/05/18 02:54:55;;;;;;;37.65;21.40;;;;;;;;;;4975467;28;20049;-70
2021/05/18 02:57:32;;;;;;;47.40;22.42;;;;;;;;;;4992130;28;20134;-70
2021/05/18 02:59:59;;;;;;;40.25;21.15;;;;;;;;;;4992501;28;20025;-71
2021/05/18 03:02:25;;;;;;;39.65;22.75;;;;;;;;;;4992124;28;20500;-70
2021/05/18 03:04:51;;;;;;;48.33;21.95;;;;;;;;;;4968480;28;20027;-70
2021/05/18 03:07:17;;;;;;;46.40;21.80;;;;;;;;;;4997426;28;20044;-70
2021/05/18 03:09:43;;;;;;;42.38;20.42;;;;;;;;;;4995855;28;20026;-70
2021/05/18 03:12:09;;;;;;;44.90;21.58;;;;;;;;;;4997884;28;20019;-70
2021/05/18 03:14:35;;;;;;;48.00;24.50;;;;;;;;;;4989511;28;20026;-70
2021/05/18 03:17:02;;;;;;;52.67;23.27;;;;;;;;;;4992168;28;20104;-70
2021/05/18 03:19:28;;;;;;;39.08;22.23;;;;;;;;;;4990998;28;20599;-70
2021/05/18 03:21:54;;;;;;;38.88;20.65;;;;;;;;;;4974881;28;20026;-70
2021/05/18 03:24:20;;;;;;;42.53;22.52;;;;;;;;;;4991398;28;20046;-72
2021/05/18 03:26:48;;;;;;;43.15;22.80;;;;;;;;;;4992556;28;20069;-70
2021/05/18 03:29:22;;;;;;;46.95;22.23;;;;;;;;;;4991192;28;20038;-70
2021/05/18 03:34:37;;;;;;;43.15;23.13;;;;;;;;;;4991950;28;20102;-69
2021/05/18 03:37:12;;;;;;;49.20;23.70;;;;;;;;;;4991661;28;20395;-70
2021/05/18 03:39:38;;;;;;;44.13;23.13;;;;;;;;;;4974437;28;20035;-70
2021/05/18 03:42:54;;;;;;;45.65;25.10;;;;;;;;;;4991571;28;20019;-70
2021/05/18 03:53:00;;;;;;;48.58;24.80;;;;;;;;;;4988020;28;20037;-70
2021/05/18 04:03:58;;;;;;;47.47;24.13;;;;;;;;;;4981154;28;20154;-70
2021/05/18 04:17:27;;;;;;;38.38;21.45;;;;;;;;;;4992217;28;20033;-70
2021/05/18 04:22:48;;;;;;;29.15;17.15;;;;;;;;;;4992094;28;20049;-71
2021/05/18 04:39:39;;;;;;;24.63;16.15;;;;;;;;;;4991748;28;20048;-69
2021/05/18 05:01:15;;;;;;;27.65;14.57;;;;;;;;;;4989041;28;20302;-70
2021/05/18 05:06:22;;;;;;;23.45;14.40;;;;;;;;;;4991637;28;20038;-71
2021/05/18 05:08:55;;;;;;;27.48;15.00;;;;;;;;;;4991419;28;20420;-70
2021/05/18 05:16:31;;;;;;;20.83;15.07;;;;;;;;;;4984007;28;20045;-70
2021/05/18 05:18:57;;;;;;;24.67;15.63;;;;;;;;;;4997465;28;20026;-70
2021/05/18 05:21:31;;;;;;;20.55;13.77;;;;;;;;;;4973740;28;20073;-70
2021/05/18 05:23:57;;;;;;;20.70;14.25;;;;;;;;;;4991839;28;20452;-70
2021/05/18 05:26:23;;;;;;;24.00;13.50;;;;;;;;;;4990461;28;20101;-70
2021/05/18 05:28:49;;;;;;;22.85;12.85;;;;;;;;;;4985092;28;20113;-70
2021/05/18 05:31:15;;;;;;;17.95;12.70;;;;;;;;;;4988718;28;20102;-70
2021/05/18 05:33:41;;;;;;;18.42;12.85;;;;;;;;;;4991001;28;20063;-70
2021/05/18 05:36:07;;;;;;;19.75;13.60;;;;;;;;;;4972757;28;20673;-70
2021/05/18 05:38:34;;;;;;;23.20;12.13;;;;;;;;;;4983617;28;20030;-70
2021/05/18 05:41:00;;;;;;;22.35;12.55;;;;;;;;;;4983111;28;20404;-70
2021/05/18 05:43:26;;;;;;;20.85;14.13;;;;;;;;;;4982209;28;20109;-70
2021/05/18 05:45:52;;;;;;;19.45;13.20;;;;;;;;;;4984081;28;20114;-70
2021/05/18 05:48:18;;;;;;;18.10;13.38;;;;;;;;;;4989520;28;20417;-70
2021/05/18 05:50:45;;;;;;;21.73;14.52;;;;;;;;;;4992300;28;20132;-70
2021/05/18 05:53:11;;;;;;;19.60;14.68;;;;;;;;;;4997662;28;20360;-70
2021/05/18 05:55:37;;;;;;;24.67;14.80;;;;;;;;;;4973225;28;20030;-70
2021/05/18 05:58:02;;;;;;;26.00;15.02;;;;;;;;;;4993689;28;20109;-70
2021/05/18 06:00:28;;;;;;;19.35;13.63;;;;;;;;;;4990169;28;20034;-70
2021/05/18 06:02:54;;;;;;;25.35;14.20;;;;;;;;;;4990383;28;20098;-70
2021/05/18 06:05:20;;;;;;;17.73;12.20;;;;;;;;;;4972391;28;20034;-70
2021/05/18 06:07:46;;;;;;;18.73;13.07;;;;;;;;;;4990345;28;20030;-71
2021/05/18 06:10:20;;;;;;;24.88;12.98;;;;;;;;;;4990221;28;20037;-70
2021/05/18 06:29:29;;;;;;;18.85;13.07;;;;;;;;;;4990420;28;20027;-71
2021/05/18 06:47:48;;;;;;;13.15;8.50;;;;;;;;;;4994032;28;20531;-71
2021/05/18 06:52:40;;;;;;;11.25;7.47;;;;;;;;;;4998742;28;20045;-78
2021/05/18 06:55:10;;;;;;;13.45;6.90;;;;;;;;;;5001583;28;20030;-73
2021/05/18 06:57:38;;;;;;;11.93;6.95;;;;;;;;;;4989378;28;20026;-71
2021/05/18 07:00:09;;;;;;;13.07;7.57;;;;;;;;;;4988793;28;20053;-71
2021/05/18 07:02:35;;;;;;;11.20;7.57;;;;;;;;;;4989523;28;20547;-71
2021/05/18 07:05:02;;;;;;;16.30;7.93;;;;;;;;;;4996693;28;20101;-71
2021/05/18 07:07:32;;;;;;;10.80;6.15;;;;;;;;;;4986226;28;20069;-71
2021/05/18 07:09:58;;;;;;;13.75;6.50;;;;;;;;;;4991241;28;20029;-71
2021/05/18 07:12:24;;;;;;;7.78;5.65;;;;;;;;;;4989670;28;20019;-71
2021/05/18 07:14:50;;;;;;;9.18;5.88;;;;;;;;;;4993195;28;20048;-71
2021/05/18 07:17:16;;;;;;;8.43;5.10;;;;;;;;;;5000323;28;20022;-71
2021/05/18 07:19:43;;;;;;;7.38;5.55;;;;;;;;;;4992662;28;20026;-71
2021/05/18 07:22:09;;;;;;;9.02;5.60;;;;;;;;;;4999471;28;20020;-71
2021/05/18 07:24:35;;;;;;;11.98;6.30;;;;;;;;;;4992876;28;20387;-71
2021/05/18 07:27:03;;;;;;;11.18;6.65;;;;;;;;;;4993310;28;20577;-71
2021/05/18 07:29:29;;;;;;;10.90;7.75;;;;;;;;;;4992649;28;20121;-71
2021/05/18 07:31:55;;;;;;;11.18;6.68;;;;;;;;;;4978219;28;20449;-71
2021/05/18 07:34:21;;;;;;;10.32;5.63;;;;;;;;;;4974106;28;20114;-71
2021/05/18 07:36:47;;;;;;;10.70;6.60;;;;;;;;;;4991922;28;20688;-74
2021/05/18 07:39:13;;;;;;;8.68;6.45;;;;;;;;;;4974585;28;20030;-73
2021/05/18 07:41:39;;;;;;;12.77;5.93;;;;;;;;;;4962587;28;20062;-71
2021/05/18 07:44:05;;;;;;;13.10;5.30;;;;;;;;;;4984975;28;20416;-71
2021/05/18 07:46:31;;;;;;;8.30;5.57;;;;;;;;;;4971340;28;20074;-71
2021/05/18 07:49:47;;;;;;;10.80;6.22;;;;;;;;;;4991835;28;20418;-71
2021/05/18 08:07:30;;;;;;;8.30;5.07;;;;;;;;;;5025985;28;20041;-69
2021/05/18 08:10:45;;;;;;;7.47;4.55;;;;;;;;;;5025044;28;20475;-69
2021/05/18 08:12:45;;;;;;;5.20;3.13;;;;;;;;;;4995590;28;20041;-69
2021/05/18 10:14:45;;;;;;;8.32;3.92;;;;;;;;;;5008187;28;20092;-69
2021/05/18 10:17:00;;;;;;;5.20;3.00;;;;;;;;;;5002121;28;20099;-69
2021/05/18 10:34:23;;;;;;;6.25;3.33;;;;;;;;;;5023490;28;20025;-69
2021/05/18 10:36:49;;;;;;;5.57;2.60;;;;;;;;;;4998798;28;20100;-70
2021/05/18 10:39:18;;;;;;;5.45;2.83;;;;;;;;;;4999312;28;20709;-70
2021/05/18 10:41:43;;;;;;;6.65;3.63;;;;;;;;;;4992282;28;20060;-70
2021/05/18 10:44:09;;;;;;;5.70;2.67;;;;;;;;;;5017317;28;20561;-70
2021/05/18 10:46:49;;;;;;;4.75;2.42;;;;;;;;;;5002174;28;20043;-71
2021/05/18 10:49:18;;;;;;;6.55;2.25;;;;;;;;;;5004011;28;20029;-70
2021/05/18 10:51:50;;;;;;;3.88;2.10;;;;;;;;;;5029897;28;20018;-70
2021/05/18 10:54:21;;;;;;;5.45;2.60;;;;;;;;;;5026279;28;20025;-70
2021/05/18 10:56:57;;;;;;;4.68;2.28;;;;;;;;;;5022571;28;20112;-69
2021/05/18 10:59:29;;;;;;;3.63;1.92;;;;;;;;;;5020313;28;20029;-70
2021/05/18 11:02:00;;;;;;;5.18;2.05;;;;;;;;;;5025307;28;20021;-69
2021/05/18 11:04:27;;;;;;;8.95;3.78;;;;;;;;;;5007238;28;20033;-70
2021/05/18 11:06:56;;;;;;;4.35;2.63;;;;;;;;;;5023822;28;20120;-70
2021/05/18 11:09:23;;;;;;;5.43;2.60;;;;;;;;;;5022974;28;20031;-71
2021/05/18 11:11:49;;;;;;;4.60;2.85;;;;;;;;;;5024142;28;20390;-71
2021/05/18 11:14:16;;;;;;;3.97;2.42;;;;;;;;;;5016713;28;20051;-70
2021/05/18 11:16:43;;;;;;;6.15;2.50;;;;;;;;;;5009225;28;20453;-72
2021/05/18 11:19:09;;;;;;;3.90;2.22;;;;;;;;;;5014530;28;20022;-70
2021/05/18 11:21:39;;;;;;;11.05;4.47;;;;;;;;;;5023062;28;20033;-69
2021/05/18 11:24:14;;;;;;;4.43;1.92;;;;;;;;;;5024289;28;20031;-72
2021/05/18 11:26:47;;;;;;;11.48;5.05;;;;;;;;;;5018063;28;20021;-68
2021/05/18 11:29:13;;;;;;;4.65;2.00;;;;;;;;;;5021612;28;20021;-70
2021/05/18 11:31:39;;;;;;;5.40;2.83;;;;;;;;;;5021365;28;20037;-70
2021/05/18 11:34:05;;;;;;;4.90;1.80;;;;;;;;;;5021065;28;20099;-68
2021/05/18 11:36:38;;;;;;;5.30;2.33;;;;;;;;;;5017562;28;20475;-69
2021/05/18 11:39:08;;;;;;;4.22;2.28;;;;;;;;;;5010918;28;20021;-68
2021/05/18 11:41:39;;;;;;;5.35;2.30;;;;;;;;;;5013158;28;20216;-68
2021/05/18 11:44:07;;;;;;;3.65;2.13;;;;;;;;;;5002393;28;20042;-68
2021/05/18 11:46:34;;;;;;;4.18;2.58;;;;;;;;;;5012369;28;20037;-68
2021/05/18 11:49:01;;;;;;;6.55;1.80;;;;;;;;;;5008785;28;20480;-68
2021/05/18 11:51:29;;;;;;;3.80;2.10;;;;;;;;;;5009173;28;20079;-70
2021/05/18 11:53:56;;;;;;;4.15;1.70;;;;;;;;;;5014814;28;20029;-69
2021/05/18 11:56:22;;;;;;;5.97;2.15;;;;;;;;;;5011944;28;20065;-71
2021/05/18 11:58:48;;;;;;;5.55;1.20;;;;;;;;;;5012767;28;20041;-70
2021/05/18 12:01:14;;;;;;;2.15;1.10;;;;;;;;;;5013645;28;20022;-70
2021/05/18 12:03:40;;;;;;;4.00;1.35;;;;;;;;;;5017538;28;20032;-70
2021/05/18 12:06:08;;;;;;;3.17;1.50;;;;;;;;;;5013536;28;20578;-70
2021/05/18 12:08:38;;;;;;;4.38;1.23;;;;;;;;;;5017175;28;20029;-69
2021/05/18 12:11:14;;;;;;;2.22;1.05;;;;;;;;;;5015010;28;20030;-70
2021/05/18 12:13:40;;;;;;;2.97;0.95;;;;;;;;;;5000494;28;20022;-69
2021/05/18 12:16:08;;;;;;;3.50;0.80;;;;;;;;;;5009367;28;20021;-70
2021/05/18 12:18:34;;;;;;;3.30;1.10;;;;;;;;;;5011041;28;20085;-69
2021/05/18 12:21:01;;;;;;;3.05;1.00;;;;;;;;;;5014870;28;20025;-70
2021/05/18 12:23:27;;;;;;;4.50;1.35;;;;;;;;;;5011785;28;20030;-70
2021/05/18 12:25:54;;;;;;;2.97;1.17;;;;;;;;;;5003712;28;20025;-69
2021/05/18 12:28:20;;;;;;;4.57;1.50;;;;;;;;;;5011388;28;20076;-69
2021/05/18 12:30:45;;;;;;;6.28;1.83;;;;;;;;;;4992620;28;20045;-69
2021/05/18 12:33:11;;;;;;;4.68;1.35;;;;;;;;;;5014862;28;20040;-70
2021/05/18 12:35:37;;;;;;;3.95;0.90;;;;;;;;;;5016222;28;20030;-70
2021/05/18 12:38:16;;;;;;;3.95;0.98;;;;;;;;;;5006265;28;20495;-69
2021/05/18 12:40:45;;;;;;;3.60;0.70;;;;;;;;;;5005791;28;20558;-69
2021/05/18 12:43:11;;;;;;;2.42;0.65;;;;;;;;;;4993901;28;20025;-70
2021/05/18 12:45:37;;;;;;;3.47;1.30;;;;;;;;;;5014235;28;20029;-70
2021/05/18 12:48:04;;;;;;;4.90;1.30;;;;;;;;;;5010066;28;20030;-68
2021/05/18 12:50:35;;;;;;;3.38;1.05;;;;;;;;;;5007510;28;20045;-69
2021/05/18 12:53:01;;;;;;;3.65;0.75;;;;;;;;;;5014531;28;20033;-69
2021/05/18 12:55:28;;;;;;;3.92;0.73;;;;;;;;;;5017464;28;20037;-71
2021/05/18 12:57:55;;;;;;;2.35;0.60;;;;;;;;;;5007085;28;20024;-71
2021/05/18 13:00:23;;;;;;;4.35;0.98;;;;;;;;;;5007472;28;20044;-69
2021/05/18 13:02:50;;;;;;;3.47;0.80;;;;;;;;;;5003088;28;20822;-70
2021/05/18 13:05:26;;;;;;;2.10;0.50;;;;;;;;;;5008051;28;20025;-70
2021/05/18 13:08:10;;;;;;;2.15;0.40;;;;;;;;;;4999846;28;20033;-70
2021/05/18 13:10:52;;;;;;;4.22;0.70;;;;;;;;;;5008127;28;20021;-71
2021/05/18 13:13:19;;;;;;;2.28;0.77;;;;;;;;;;5015162;28;20032;-71
2021/05/18 13:15:45;;;;;;;3.30;1.10;;;;;;;;;;5019054;28;20395;-70
2021/05/18 13:18:14;;;;;;;2.13;0.93;;;;;;;;;;5021150;28;20025;-70
2021/05/18 13:20:40;;;;;;;1.90;1.00;;;;;;;;;;5019312;28;20021;-71
2021/05/18 13:23:09;;;;;;;4.90;0.90;;;;;;;;;;5017891;28;20029;-70
2021/05/18 13:28:20;;;;;;;7.25;1.10;;;;;;;;;;5020005;28;20036;-73
2021/05/18 13:30:46;;;;;;;6.20;1.35;;;;;;;;;;5019011;28;20479;-70
2021/05/18 13:33:12;;;;;;;3.67;1.05;;;;;;;;;;5022394;28;20556;-70
2021/05/18 13:35:38;;;;;;;3.22;1.10;;;;;;;;;;5024302;28;20049;-70
2021/05/18 13:38:04;;;;;;;5.97;1.65;;;;;;;;;;5023293;28;20031;-71
2021/05/18 13:40:31;;;;;;;4.15;2.05;;;;;;;;;;5021774;28;20550;-70
2021/05/18 13:42:57;;;;;;;3.40;1.50;;;;;;;;;;5019702;28;20108;-70
2021/05/18 13:45:27;;;;;;;4.32;1.27;;;;;;;;;;4999293;28;20037;-70
2021/05/18 13:47:54;;;;;;;1.85;0.90;;;;;;;;;;5020475;28;20108;-70
2021/05/18 13:50:21;;;;;;;4.38;0.70;;;;;;;;;;5021545;28;20045;-70
2021/05/18 13:52:47;;;;;;;4.18;0.98;;;;;;;;;;4998114;28;20500;-70
2021/05/18 13:55:13;;;;;;;5.43;1.50;;;;;;;;;;4989064;28;20024;-71
2021/05/18 13:57:39;;;;;;;3.78;1.10;;;;;;;;;;4989621;28;20026;-70
2021/05/18 14:00:08;;;;;;;3.47;0.73;;;;;;;;;;5000622;28;20014;-69
2021/05/18 14:02:36;;;;;;;1.17;0.68;;;;;;;;;;5001228;28;20033;-70
2021/05/18 14:05:02;;;;;;;2.22;0.82;;;;;;;;;;4995465;28;20027;-71
2021/05/18 14:10:39;;;;;;;4.05;0.85;;;;;;;;;;4994954;28;20034;-70
2021/05/18 14:13:05;;;;;;;3.03;0.63;;;;;;;;;;4993594;28;20037;-71
2021/05/18 14:15:31;;;;;;;2.72;0.68;;;;;;;;;;4997456;28;20056;-70
2021/05/18 14:17:57;;;;;;;4.85;0.70;;;;;;;;;;5004784;28;20026;-70
2021/05/18 14:20:23;;;;;;;3.35;0.70;;;;;;;;;;4996686;28;20442;-71
2021/05/18 14:22:49;;;;;;;3.25;0.90;;;;;;;;;;4996592;28;20142;-71
2021/05/18 14:25:15;;;;;;;1.60;0.50;;;;;;;;;;5003609;28;20439;-70
2021/05/18 14:27:43;;;;;;;2.08;0.52;;;;;;;;;;4997921;28;20026;-70
2021/05/18 14:30:10;;;;;;;3.00;0.88;;;;;;;;;;5005689;28;20022;-71
2021/05/18 14:32:37;;;;;;;2.55;0.75;;;;;;;;;;5006618;28;20026;-70
2021/05/18 14:35:06;;;;;;;2.22;0.95;;;;;;;;;;4995271;28;20508;-70
2021/05/18 14:37:32;;;;;;;5.68;1.13;;;;;;;;;;5003795;28;20129;-71
2021/05/18 14:45:10;;;;;;;2.47;0.50;;;;;;;;;;5004568;28;20665;-71
2021/05/18 14:55:50;;;;;;;1.45;0.68;;;;;;;;;;4992097;28;20100;-70
2021/05/18 14:58:16;;;;;;;2.33;0.93;;;;;;;;;;4987436;28;20026;-70
2021/05/18 15:00:43;;;;;;;2.67;0.90;;;;;;;;;;4994247;28;20068;-70
2021/05/18 15:03:09;;;;;;;5.50;0.50;;;;;;;;;;5006676;28;20030;-71
2021/05/18 15:05:36;;;;;;;1.33;0.40;;;;;;;;;;5006035;28;20054;-71
2021/05/18 15:08:02;;;;;;;2.38;0.50;;;;;;;;;;5007505;28;20682;-71
2021/05/18 15:10:28;;;;;;;1.60;0.60;;;;;;;;;;4999458;28;20033;-72
2021/05/18 15:12:54;;;;;;;3.60;0.43;;;;;;;;;;4998509;28;20049;-71
2021/05/18 15:15:21;;;;;;;2.75;0.50;;;;;;;;;;5007697;28;20029;-70
2021/05/18 15:17:47;;;;;;;2.08;0.60;;;;;;;;;;5009476;28;20082;-70
2021/05/18 15:20:14;;;;;;;3.72;0.52;;;;;;;;;;4998137;28;20061;-70
2021/05/18 15:22:40;;;;;;;4.47;0.40;;;;;;;;;;5003884;28;20054;-69
2021/05/18 15:25:07;;;;;;;1.73;0.30;;;;;;;;;;4996869;28;20084;-70
2021/05/18 15:27:33;;;;;;;3.05;0.40;;;;;;;;;;4983738;28;20037;-71
2021/05/18 15:29:59;;;;;;;3.35;0.50;;;;;;;;;;4998613;28;20022;-70
2021/05/18 15:32:25;;;;;;;1.75;0.40;;;;;;;;;;5004772;28;20043;-69
2021/05/18 15:34:51;;;;;;;1.30;0.43;;;;;;;;;;4991782;28;20026;-70
2021/05/18 15:37:17;;;;;;;3.80;0.85;;;;;;;;;;4992716;28;20064;-70
2021/05/18 15:39:44;;;;;;;2.65;1.27;;;;;;;;;;4987810;28;20023;-70
2021/05/18 15:42:10;;;;;;;3.42;1.35;;;;;;;;;;4978559;28;20057;-70
2021/05/18 15:44:36;;;;;;;3.95;1.17;;;;;;;;;;4992355;28;20491;-70
2021/05/18 15:47:03;;;;;;;2.05;0.65;;;;;;;;;;4989669;28;20089;-70
2021/05/18 15:49:30;;;;;;;3.88;1.08;;;;;;;;;;4982017;28;20022;-69
2021/05/18 15:51:57;;;;;;;3.20;0.88;;;;;;;;;;4986067;28;20143;-69
2021/05/18 15:54:23;;;;;;;3.40;1.23;;;;;;;;;;4995882;28;20431;-70
2021/05/18 15:56:49;;;;;;;4.05;1.42;;;;;;;;;;4991273;28;20029;-70
2021/05/18 15:59:15;;;;;;;2.72;1.20;;;;;;;;;;4990770;28;20025;-70
2021/05/18 16:01:42;;;;;;;5.93;3.30;;;;;;;;;;4983306;28;20022;-70
2021/05/18 16:04:08;;;;;;;5.72;1.83;;;;;;;;;;4997300;28;20030;-71
2021/05/18 16:06:39;;;;;;;5.65;1.58;;;;;;;;;;4985851;28;20126;-70
2021/05/18 16:09:05;;;;;;;3.28;1.00;;;;;;;;;;4992901;28;20117;-70
2021/05/18 16:11:31;;;;;;;2.38;1.10;;;;;;;;;;4999061;28;20034;-70
2021/05/18 16:13:57;;;;;;;3.35;0.93;;;;;;;;;;4999577;28;20022;-70
2021/05/18 16:16:24;;;;;;;3.10;1.30;;;;;;;;;;4995081;28;20054;-70
2021/05/18 16:18:50;;;;;;;4.00;1.33;;;;;;;;;;4996191;28;20030;-73
2021/05/18 16:21:17;;;;;;;4.25;1.05;;;;;;;;;;4996324;28;20084;-70
2021/05/18 16:23:45;;;;;;;5.28;0.98;;;;;;;;;;4995296;28;20516;-70
2021/05/18 16:26:11;;;;;;;4.20;0.75;;;;;;;;;;5000930;28;20022;-70
2021/05/18 16:28:37;;;;;;;2.97;0.98;;;;;;;;;;4990646;28;20069;-70
2021/05/18 16:31:07;;;;;;;2.85;0.90;;;;;;;;;;5016376;28;20057;-70
2021/05/18 16:33:32;;;;;;;3.70;1.60;;;;;;;;;;4983086;28;20018;-70
2021/05/18 16:35:58;;;;;;;2.90;0.80;;;;;;;;;;4994955;28;20025;-70
2021/05/18 16:38:25;;;;;;;2.08;0.60;;;;;;;;;;4992507;28;20015;-71
2021/05/18 16:40:53;;;;;;;3.10;1.00;;;;;;;;;;5006692;28;20027;-71
2021/05/18 16:43:20;;;;;;;3.33;1.02;;;;;;;;;;4992822;28;20026;-70
2021/05/18 16:45:46;;;;;;;4.28;0.85;;;;;;;;;;4988818;28;20038;-70
2021/05/18 16:48:12;;;;;;;3.92;1.08;;;;;;;;;;4993266;28;20072;-70
2021/05/18 16:50:38;;;;;;;3.50;1.02;;;;;;;;;;4992822;28;20447;-70
2021/05/18 16:53:04;;;;;;;2.67;0.85;;;;;;;;;;4989306;28;20022;-70
2021/05/18 16:55:30;;;;;;;4.50;0.93;;;;;;;;;;4991533;28;20027;-71
2021/05/18 16:57:56;;;;;;;3.13;1.10;;;;;;;;;;5001236;28;20022;-70
2021/05/18 17:00:22;;;;;;;2.42;0.82;;;;;;;;;;4991868;28;20119;-71
2021/05/18 17:02:48;;;;;;;2.88;0.80;;;;;;;;;;4994044;28;20029;-71
2021/05/18 17:05:14;;;;;;;1.38;0.70;;;;;;;;;;4991250;28;20022;-71
2021/05/18 17:07:40;;;;;;;3.03;0.90;;;;;;;;;;4996420;28;20021;-70
2021/05/18 17:10:06;;;;;;;4.25;0.80;;;;;;;;;;4997898;28;20048;-70
2021/05/18 17:12:33;;;;;;;3.60;1.00;;;;;;;;;;4983296;28;20027;-70
2021/05/18 17:14:59;;;;;;;1.95;0.75;;;;;;;;;;4990790;28;20030;-69
2021/05/18 17:17:25;;;;;;;3.08;0.70;;;;;;;;;;4988701;28;20040;-69
2021/05/18 17:19:51;;;;;;;1.70;0.43;;;;;;;;;;5009903;28;20056;-70
2021/05/18 17:22:18;;;;;;;4.47;0.85;;;;;;;;;;4993057;28;20029;-69
2021/05/18 17:24:44;;;;;;;3.63;0.60;;;;;;;;;;4994163;28;20026;-70
2021/05/18 17:27:10;;;;;;;1.90;0.80;;;;;;;;;;4988979;28;20023;-70
2021/05/18 17:29:37;;;;;;;3.38;0.98;;;;;;;;;;4996041;28;20040;-70
2021/05/18 17:32:04;;;;;;;3.90;0.50;;;;;;;;;;4998110;28;20026;-70
2021/05/18 17:34:30;;;;;;;4.50;0.82;;;;;;;;;;5003158;28;20030;-70
2021/05/18 17:36:56;;;;;;;2.55;0.63;;;;;;;;;;4998227;28;20026;-70
2021/05/18 17:39:25;;;;;;;3.25;0.90;;;;;;;;;;4996643;28;20392;-70
2021/05/18 17:41:51;;;;;;;4.53;0.75;;;;;;;;;;5017725;28;20034;-70
2021/05/18 17:44:17;;;;;;;5.18;1.33;;;;;;;;;;5012420;28;20022;-70
2021/05/18 17:46:44;;;;;;;3.50;0.50;;;;;;;;;;4997502;28;20053;-70
2021/05/18 17:49:15;;;;;;;2.85;1.08;;;;;;;;;;5011029;28;20037;-70
2021/05/18 17:51:41;;;;;;;6.00;0.82;;;;;;;;;;5000300;28;20028;-71
2021/05/18 17:54:07;;;;;;;5.68;1.45;;;;;;;;;;5014940;28;20034;-71
2021/05/18 17:56:33;;;;;;;3.03;0.95;;;;;;;;;;5014418;28;20541;-72
2021/05/18 17:58:59;;;;;;;3.38;0.75;;;;;;;;;;4994518;28;20084;-69
2021/05/18 18:01:25;;;;;;;1.88;0.80;;;;;;;;;;4992800;28;20034;-71
2021/05/18 18:03:52;;;;;;;2.95;0.60;;;;;;;;;;4993134;28;20084;-70
2021/05/18 18:06:18;;;;;;;2.53;0.52;;;;;;;;;;4989351;28;20026;-71
2021/05/18 18:08:45;;;;;;;2.00;0.90;;;;;;;;;;4999048;28;20042;-72
2021/05/18 18:11:11;;;;;;;5.13;0.93;;;;;;;;;;4996614;28;20026;-70
2021/05/18 18:13:38;;;;;;;5.90;1.33;;;;;;;;;;4989262;28;20018;-71
2021/05/18 18:16:08;;;;;;;4.68;1.45;;;;;;;;;;4990830;28;20404;-73
2021/05/18 18:18:34;;;;;;;4.60;1.20;;;;;;;;;;4976895;28;20015;-72
2021/05/18 18:21:02;;;;;;;2.88;0.80;;;;;;;;;;4986504;28;20030;-71
2021/05/18 18:23:28;;;;;;;8.25;1.35;;;;;;;;;;5001353;28;20031;-72
2021/05/18 18:25:54;;;;;;;5.38;0.90;;;;;;;;;;4991163;28;20100;-72
2021/05/18 18:28:20;;;;;;;4.80;1.00;;;;;;;;;;4997133;28;20110;-73
2021/05/18 18:30:46;;;;;;;2.95;1.27;;;;;;;;;;4993282;28;20401;-71
2021/05/18 18:33:13;;;;;;;5.32;1.40;;;;;;;;;;4997648;28;20053;-72
2021/05/18 18:35:39;;;;;;;3.00;1.15;;;;;;;;;;5002567;28;20543;-71
2021/05/18 18:38:09;;;;;;;4.45;1.45;;;;;;;;;;5003347;28;20088;-71
2021/05/18 18:40:35;;;;;;;;;;;;;;;;;;4999290;28;20014;-71
2021/05/18 18:43:01;;;;;;;5.38;1.88;;;;;;;;;;4999952;28;20330;-72
2021/05/18 18:45:27;;;;;;;3.65;2.10;;;;;;;;;;5001095;28;20038;-72
2021/05/18 18:47:53;;;;;;;3.88;1.48;;;;;;;;;;5004570;28;20084;-72
2021/05/18 18:50:23;;;;;;;3.50;1.20;;;;;;;;;;4986665;28;20066;-72
2021/05/18 18:52:59;;;;;;;2.75;1.02;;;;;;;;;;4993776;28;20049;-72
2021/05/18 18:55:26;;;;;;;1.98;0.90;;;;;;;;;;4996114;28;20019;-72
2021/05/18 18:57:52;;;;;;;5.15;1.00;;;;;;;;;;4993400;28;20062;-71
2021/05/18 19:00:20;;;;;;;6.40;1.65;;;;;;;;;;5010379;28;20050;-72
2021/05/18 19:10:33;;;;;;;4.43;1.60;;;;;;;;;;5001119;28;20031;-72
2021/05/18 19:12:59;;;;;;;2.15;0.82;;;;;;;;;;4998958;28;20605;-72
2021/05/18 19:15:25;;;;;;;4.50;0.90;;;;;;;;;;4992307;28;20023;-72
2021/05/18 19:17:51;;;;;;;2.95;1.10;;;;;;;;;;5000591;28;20460;-72
2021/05/18 19:20:17;;;;;;;1.77;0.80;;;;;;;;;;4997880;28;20022;-72
2021/05/18 19:22:43;;;;;;;5.68;1.02;;;;;;;;;;4994017;28;20027;-72
2021/05/18 19:25:09;;;;;;;4.38;1.02;;;;;;;;;;4994374;28;20041;-72
2021/05/18 19:27:44;;;;;;;3.30;0.75;;;;;;;;;;4996590;28;20109;-72
2021/05/18 19:30:15;;;;;;;3.38;1.10;;;;;;;;;;4995549;28;20097;-72
2021/05/18 19:32:41;;;;;;;3.35;1.10;;;;;;;;;;4993022;28;20034;-72
2021/05/18 19:35:10;;;;;;;2.22;0.80;;;;;;;;;;5006801;28;20030;-72
2021/05/18 19:41:20;;;;;;;1.25;0.77;;;;;;;;;;4999329;28;20101;-72
2021/05/18 19:43:20;;;;;;;4.65;1.00;;;;;;;;;;4995155;28;20514;-72
2021/05/18 19:48:32;;;;;;;3.42;1.10;;;;;;;;;;5000649;28;20533;-72